CheckWX is a tool to help pilots better visualize weather data.  It is not intended as a substitute for an official pre-flight weather briefing.

11:26:43 UTC

KCMR METAR
H A Clark Memorial Field Airport
Williams, Arizona, USA
Current

12 mins ago

KCMR 041115Z AUTO 16006KT 10SM CLR M01/M05 A2992 RMK AO2
Observed
Apr-4 @ 11:15 UTC
Wind
  • 160° at 6 KTS
Visibility
Flight Rules
VFR
Cloud Levels
  • Clear skies
Temperature
-1°C / 30°F
Dewpoint
-5°C / 23°F
Humidity
75%
Altimeter
29.92" Hg
Pressure
1013.22 hPa
Previous

32 mins ago

KCMR 041055Z AUTO 17006KT 10SM CLR M02/M05 A2992 RMK AO2
Observed
Apr-4 @ 10:55 UTC
Wind
  • 170° at 6 KTS
Visibility
Flight Rules
VFR
Cloud Levels
  • Clear skies
Temperature
-2°C / 28°F
Dewpoint
-5°C / 23°F
Humidity
80%
Altimeter
29.92" Hg
Pressure
1013.22 hPa
Previous

52 mins ago

KCMR 041035Z AUTO 17006KT 10SM CLR M01/M05 A2992 RMK AO2
Observed
Apr-4 @ 10:35 UTC
Wind
  • 170° at 6 KTS
Visibility
Flight Rules
VFR
Cloud Levels
  • Clear skies
Temperature
-1°C / 30°F
Dewpoint
-5°C / 23°F
Humidity
75%
Altimeter
29.92" Hg
Pressure
1013.22 hPa